Time;durP1;ratioP1;P1;durP2;ratioP2;P2;SDS_P1;SDS_P2;PMS_P1;PMS_P2;Temp;Humidity;BMP_temperature;BMP_pressure;BME280_temperature;BME280_humidity;BME280_pressure;Samples;Min_cycle;Max_cycle;Signal;HPM_P1;HPM_P2
2021/06/23 00:01:30;;;;;;;23.13;19.63;;;;;;;;;;4992298;28;20408;-50
2021/06/23 00:03:56;;;;;;;29.20;21.30;;;;;;;;;;4992387;28;20779;-50
2021/06/23 00:06:22;;;;;;;20.20;18.10;;;;;;;;;;4992253;28;20893;-50
2021/06/23 00:08:48;;;;;;;22.70;19.47;;;;;;;;;;4991922;28;20410;-50
2021/06/23 00:11:14;;;;;;;27.47;19.43;;;;;;;;;;4991820;28;20900;-50
2021/06/23 00:13:41;;;;;;;31.90;20.07;;;;;;;;;;4992028;28;20488;-50
2021/06/23 00:16:07;;;;;;;33.50;19.20;;;;;;;;;;4992091;28;20420;-50
2021/06/23 00:18:34;;;;;;;24.63;20.43;;;;;;;;;;4991760;28;20459;-50
2021/06/23 00:21:00;;;;;;;21.50;18.97;;;;;;;;;;4992133;28;20479;-50
2021/06/23 00:23:27;;;;;;;23.13;19.10;;;;;;;;;;4991953;28;20493;-50
2021/06/23 00:25:53;;;;;;;23.17;19.50;;;;;;;;;;4991776;28;20414;-51
2021/06/23 00:28:19;;;;;;;25.20;20.57;;;;;;;;;;4991893;28;20404;-50
2021/06/23 00:30:45;;;;;;;24.00;19.50;;;;;;;;;;4991620;28;20408;-50
2021/06/23 00:33:15;;;;;;;22.50;19.00;;;;;;;;;;4991713;28;20434;-50
2021/06/23 00:35:42;;;;;;;24.10;18.83;;;;;;;;;;4991376;28;20404;-50
2021/06/23 00:38:09;;;;;;;22.37;19.67;;;;;;;;;;4991733;28;20422;-50
2021/06/23 00:40:35;;;;;;;31.93;20.07;;;;;;;;;;4991646;28;20758;-50
2021/06/23 00:43:02;;;;;;;27.13;18.90;;;;;;;;;;4991530;28;20398;-50
2021/06/23 00:45:29;;;;;;;30.07;21.90;;;;;;;;;;4991780;28;20455;-50
2021/06/23 00:47:55;;;;;;;24.70;21.10;;;;;;;;;;4991503;28;20487;-50
2021/06/23 00:50:21;;;;;;;23.50;19.63;;;;;;;;;;4991700;28;20414;-50
2021/06/23 00:52:48;;;;;;;23.50;20.10;;;;;;;;;;4991286;28;20566;-50
2021/06/23 00:55:23;;;;;;;24.33;21.80;;;;;;;;;;4991475;28;20881;-50
2021/06/23 00:57:50;;;;;;;31.47;20.97;;;;;;;;;;4991111;28;20926;-50
2021/06/23 01:00:17;;;;;;;27.40;21.03;;;;;;;;;;4991638;28;20405;-50
2021/06/23 01:02:43;;;;;;;25.30;19.03;;;;;;;;;;4991055;28;20419;-50
2021/06/23 01:05:10;;;;;;;26.90;20.80;;;;;;;;;;4991332;28;20405;-50
2021/06/23 01:07:36;;;;;;;25.37;20.63;;;;;;;;;;4991021;28;20443;-50
2021/06/23 01:10:01;;;;;;;26.10;22.13;;;;;;;;;;4991469;28;20450;-50
2021/06/23 01:12:27;;;;;;;22.43;19.00;;;;;;;;;;4991112;28;20483;-50
2021/06/23 01:14:54;;;;;;;27.63;19.90;;;;;;;;;;4991387;28;20655;-50
2021/06/23 01:17:21;;;;;;;25.53;20.50;;;;;;;;;;4991022;28;20412;-50
2021/06/23 01:19:49;;;;;;;36.97;21.30;;;;;;;;;;4991436;28;20514;-50
2021/06/23 01:22:16;;;;;;;23.57;20.10;;;;;;;;;;4991303;28;20619;-51
2021/06/23 01:24:43;;;;;;;25.73;19.30;;;;;;;;;;4995101;28;20431;-51
2021/06/23 01:27:10;;;;;;;27.93;20.13;;;;;;;;;;4994588;28;20412;-49
2021/06/23 01:29:37;;;;;;;26.87;20.00;;;;;;;;;;4994434;28;20403;-52
2021/06/23 01:32:03;;;;;;;23.77;20.60;;;;;;;;;;4994540;28;20423;-49
2021/06/23 01:34:29;;;;;;;23.63;18.53;;;;;;;;;;4994543;28;20432;-49
2021/06/23 01:36:55;;;;;;;27.80;20.20;;;;;;;;;;4994425;28;20408;-49
2021/06/23 01:39:21;;;;;;;23.30;19.87;;;;;;;;;;4994291;28;20466;-49
2021/06/23 01:41:47;;;;;;;26.73;20.37;;;;;;;;;;4994323;28;20431;-49
2021/06/23 01:44:13;;;;;;;25.13;19.97;;;;;;;;;;4994299;28;20398;-49
2021/06/23 01:46:39;;;;;;;23.17;20.63;;;;;;;;;;4994163;28;20411;-50
2021/06/23 01:49:05;;;;;;;26.93;20.10;;;;;;;;;;4994254;28;20522;-52
2021/06/23 01:51:31;;;;;;;25.60;20.30;;;;;;;;;;4994298;28;20470;-49
2021/06/23 01:53:57;;;;;;;27.33;20.60;;;;;;;;;;4993921;28;20426;-49
2021/06/23 01:56:23;;;;;;;25.33;20.33;;;;;;;;;;4994134;28;20506;-50
2021/06/23 01:58:49;;;;;;;24.60;20.20;;;;;;;;;;4993901;28;20447;-49
2021/06/23 02:01:32;;;;;;;29.23;19.77;;;;;;;;;;4994101;28;20416;-52
2021/06/23 02:03:58;;;;;;;21.03;18.60;;;;;;;;;;4993769;28;20404;-51
2021/06/23 02:06:42;;;;;;;27.40;21.00;;;;;;;;;;4993866;28;20403;-49
2021/06/23 02:09:17;;;;;;;29.40;20.40;;;;;;;;;;4993857;28;20419;-50
2021/06/23 02:11:47;;;;;;;30.33;21.67;;;;;;;;;;4993716;28;20465;-49
2021/06/23 02:14:32;;;;;;;25.20;20.23;;;;;;;;;;4993772;28;20403;-52
2021/06/23 02:16:59;;;;;;;27.23;21.30;;;;;;;;;;4993809;28;20408;-49
2021/06/23 02:19:25;;;;;;;24.27;19.07;;;;;;;;;;4993647;28;20455;-49
2021/06/23 02:21:51;;;;;;;28.03;19.80;;;;;;;;;;4993432;28;20423;-49
2021/06/23 02:24:17;;;;;;;33.97;20.30;;;;;;;;;;4993477;28;20407;-50
2021/06/23 02:26:43;;;;;;;25.87;21.60;;;;;;;;;;4993415;28;20892;-49
2021/06/23 02:29:09;;;;;;;27.23;20.60;;;;;;;;;;4993424;28;20404;-49
2021/06/23 02:31:37;;;;;;;23.50;21.00;;;;;;;;;;4993424;28;20448;-49
2021/06/23 02:34:05;;;;;;;25.73;21.17;;;;;;;;;;4993244;28;20980;-50
2021/06/23 02:36:31;;;;;;;22.20;19.80;;;;;;;;;;4993373;28;20419;-49
2021/06/23 02:38:57;;;;;;;26.93;20.57;;;;;;;;;;4993275;28;20463;-50
2021/06/23 02:41:23;;;;;;;22.63;20.17;;;;;;;;;;4993404;28;20471;-49
2021/06/23 02:43:49;;;;;;;33.23;20.70;;;;;;;;;;4993351;28;20851;-49
2021/06/23 02:46:16;;;;;;;23.17;20.93;;;;;;;;;;4993236;28;20887;-49
2021/06/23 02:48:42;;;;;;;28.70;21.87;;;;;;;;;;4993211;28;20491;-49
2021/06/23 02:51:22;;;;;;;31.70;21.53;;;;;;;;;;4993066;28;20900;-49
2021/06/23 02:53:48;;;;;;;31.20;21.60;;;;;;;;;;4993107;28;21022;-49
2021/06/23 02:56:15;;;;;;;25.50;20.20;;;;;;;;;;4993057;28;20410;-50
2021/06/23 02:58:42;;;;;;;25.33;20.33;;;;;;;;;;4993070;28;20615;-49
2021/06/23 03:01:08;;;;;;;27.60;21.27;;;;;;;;;;4993619;28;20378;-49
2021/06/23 03:03:34;;;;;;;36.13;20.90;;;;;;;;;;4992836;28;20446;-52
2021/06/23 03:06:03;;;;;;;24.87;21.43;;;;;;;;;;4992843;28;20884;-49
2021/06/23 03:08:29;;;;;;;24.63;21.30;;;;;;;;;;4993015;28;20443;-50
2021/06/23 03:10:55;;;;;;;43.53;21.37;;;;;;;;;;4992678;28;20440;-50
2021/06/23 03:13:21;;;;;;;28.30;20.60;;;;;;;;;;4992926;28;20399;-49
2021/06/23 03:15:47;;;;;;;23.93;21.43;;;;;;;;;;4992580;28;20382;-52
2021/06/23 03:18:13;;;;;;;23.57;19.97;;;;;;;;;;4992447;28;20546;-49
2021/06/23 03:20:39;;;;;;;23.70;19.80;;;;;;;;;;4992470;28;20399;-49
2021/06/23 03:23:06;;;;;;;28.67;21.40;;;;;;;;;;4992546;28;20409;-49
2021/06/23 03:25:31;;;;;;;29.80;20.70;;;;;;;;;;4992557;28;20788;-51
2021/06/23 03:27:59;;;;;;;29.50;20.00;;;;;;;;;;4992351;28;20411;-49
2021/06/23 03:30:26;;;;;;;28.83;20.33;;;;;;;;;;4992383;28;20418;-49
2021/06/23 03:32:52;;;;;;;24.93;20.17;;;;;;;;;;4992035;28;20795;-49
2021/06/23 03:35:20;;;;;;;23.80;18.73;;;;;;;;;;4992573;28;20790;-49
2021/06/23 03:37:46;;;;;;;25.40;19.20;;;;;;;;;;4992099;28;20487;-49
2021/06/23 03:40:12;;;;;;;26.10;20.10;;;;;;;;;;4992113;28;21072;-51
2021/06/23 03:42:38;;;;;;;25.03;19.37;;;;;;;;;;4992067;28;20498;-52
2021/06/23 03:45:05;;;;;;;28.20;19.10;;;;;;;;;;4974779;28;20904;-49
2021/06/23 03:47:31;;;;;;;23.80;19.57;;;;;;;;;;4991362;28;20382;-49
2021/06/23 03:49:57;;;;;;;31.80;19.57;;;;;;;;;;4992148;28;20427;-50
2021/06/23 03:52:23;;;;;;;23.00;19.70;;;;;;;;;;4991684;28;21038;-51
2021/06/23 03:54:49;;;;;;;24.63;19.97;;;;;;;;;;4991883;28;20400;-49
2021/06/23 03:57:15;;;;;;;40.03;22.20;;;;;;;;;;4991666;28;20416;-49
2021/06/23 03:59:40;;;;;;;25.83;19.80;;;;;;;;;;4991737;28;20491;-49
2021/06/23 04:02:07;;;;;;;24.33;19.43;;;;;;;;;;4991497;28;20477;-49
2021/06/23 04:04:33;;;;;;;25.70;18.43;;;;;;;;;;4991808;28;20396;-51
2021/06/23 04:06:59;;;;;;;24.70;18.87;;;;;;;;;;4991695;28;20377;-49
2021/06/23 04:09:25;;;;;;;25.13;19.80;;;;;;;;;;4991841;28;20404;-49
2021/06/23 04:11:51;;;;;;;23.40;17.13;;;;;;;;;;4991443;28;20792;-49
2021/06/23 04:14:17;;;;;;;25.93;18.63;;;;;;;;;;4991626;28;20778;-49
2021/06/23 04:16:42;;;;;;;28.50;18.53;;;;;;;;;;4991533;28;20396;-49
2021/06/23 04:19:08;;;;;;;22.03;17.27;;;;;;;;;;4991700;28;20841;-49
2021/06/23 04:21:34;;;;;;;26.37;18.17;;;;;;;;;;4991692;28;20412;-53
2021/06/23 04:24:00;;;;;;;30.87;18.47;;;;;;;;;;4991599;28;20747;-50
2021/06/23 04:26:26;;;;;;;30.53;20.10;;;;;;;;;;4991234;28;20763;-49
2021/06/23 04:28:52;;;;;;;27.33;18.33;;;;;;;;;;4991290;28;20494;-51
2021/06/23 04:31:18;;;;;;;27.83;17.23;;;;;;;;;;4991223;28;20388;-52
2021/06/23 04:33:45;;;;;;;26.20;18.13;;;;;;;;;;4991205;28;20399;-53
2021/06/23 04:36:11;;;;;;;23.97;18.70;;;;;;;;;;4991513;28;20404;-49
2021/06/23 04:38:37;;;;;;;23.87;17.63;;;;;;;;;;4991242;28;20470;-49
2021/06/23 04:41:04;;;;;;;32.37;19.07;;;;;;;;;;4991458;28;20414;-49
2021/06/23 04:43:29;;;;;;;28.83;19.77;;;;;;;;;;4991303;28;20427;-49
2021/06/23 04:45:55;;;;;;;19.90;17.90;;;;;;;;;;4991242;28;20408;-50
2021/06/23 04:48:21;;;;;;;31.30;17.00;;;;;;;;;;4991274;28;20435;-49
2021/06/23 04:50:47;;;;;;;31.70;17.70;;;;;;;;;;4991275;28;20400;-49
2021/06/23 04:53:13;;;;;;;22.70;17.00;;;;;;;;;;4990823;28;20450;-49
2021/06/23 04:55:39;;;;;;;27.07;16.70;;;;;;;;;;4990915;28;20414;-49
2021/06/23 04:58:05;;;;;;;29.70;17.90;;;;;;;;;;4989793;28;20412;-52
2021/06/23 05:00:31;;;;;;;24.73;17.20;;;;;;;;;;4991057;28;20454;-53
2021/06/23 05:02:57;;;;;;;25.33;17.50;;;;;;;;;;4990417;28;20428;-50
2021/06/23 05:05:23;;;;;;;30.70;18.00;;;;;;;;;;4990932;28;20477;-50
2021/06/23 05:07:52;;;;;;;26.80;18.50;;;;;;;;;;4990531;28;20486;-51
2021/06/23 05:10:17;;;;;;;28.47;18.80;;;;;;;;;;4990912;28;20415;-50
2021/06/23 05:12:43;;;;;;;27.43;18.20;;;;;;;;;;4990307;28;20432;-49
2021/06/23 05:15:10;;;;;;;32.90;17.77;;;;;;;;;;4990776;28;20408;-50
2021/06/23 05:17:36;;;;;;;27.73;18.40;;;;;;;;;;4990362;28;20846;-52
2021/06/23 05:20:03;;;;;;;21.77;16.90;;;;;;;;;;4990791;28;20459;-50
2021/06/23 05:22:29;;;;;;;28.67;18.87;;;;;;;;;;4990614;28;20796;-49
2021/06/23 05:24:56;;;;;;;30.73;17.70;;;;;;;;;;4990567;28;20407;-49
2021/06/23 05:27:22;;;;;;;28.87;17.60;;;;;;;;;;4990440;28;20974;-51
2021/06/23 05:29:48;;;;;;;23.27;16.23;;;;;;;;;;4990584;28;20412;-49
2021/06/23 05:32:14;;;;;;;22.03;15.60;;;;;;;;;;4990567;28;20467;-49
2021/06/23 05:34:40;;;;;;;21.57;17.10;;;;;;;;;;4990434;28;20805;-49
2021/06/23 05:37:06;;;;;;;24.50;16.43;;;;;;;;;;4990521;28;20408;-50
2021/06/23 05:39:32;;;;;;;21.73;16.50;;;;;;;;;;4990473;28;20454;-49
2021/06/23 05:41:58;;;;;;;25.87;16.27;;;;;;;;;;4990249;28;20543;-50
2021/06/23 05:44:24;;;;;;;22.27;16.63;;;;;;;;;;4990365;28;20506;-49
2021/06/23 05:46:50;;;;;;;22.97;16.00;;;;;;;;;;4990191;28;20487;-49
2021/06/23 05:49:16;;;;;;;20.70;14.60;;;;;;;;;;4990330;28;20408;-49
2021/06/23 05:51:42;;;;;;;25.67;15.47;;;;;;;;;;4990334;28;21022;-50
2021/06/23 05:54:08;;;;;;;22.80;15.70;;;;;;;;;;4990202;28;20426;-50
2021/06/23 05:56:34;;;;;;;21.77;15.07;;;;;;;;;;4990308;28;20408;-50
2021/06/23 05:59:00;;;;;;;19.20;14.77;;;;;;;;;;4990150;28;20490;-52
2021/06/23 06:01:26;;;;;;;19.17;14.83;;;;;;;;;;4990367;28;20404;-50
2021/06/23 06:03:53;;;;;;;20.60;15.07;;;;;;;;;;4990091;28;20395;-51
2021/06/23 06:06:19;;;;;;;19.60;14.13;;;;;;;;;;4990240;28;20442;-50
2021/06/23 06:08:45;;;;;;;18.70;13.87;;;;;;;;;;4990106;28;20861;-50
2021/06/23 06:11:11;;;;;;;20.40;13.77;;;;;;;;;;4993844;28;20393;-51
2021/06/23 06:13:37;;;;;;;28.00;16.83;;;;;;;;;;4993508;28;20519;-52
2021/06/23 06:16:03;;;;;;;22.83;14.70;;;;;;;;;;4993762;28;20400;-52
2021/06/23 06:18:29;;;;;;;21.67;15.17;;;;;;;;;;4993794;28;20498;-52
2021/06/23 06:20:57;;;;;;;20.70;14.37;;;;;;;;;;4993767;28;20845;-52
2021/06/23 06:23:23;;;;;;;15.83;14.20;;;;;;;;;;4993790;28;20474;-51
2021/06/23 06:25:49;;;;;;;20.93;15.07;;;;;;;;;;4975984;28;21072;-54
2021/06/23 06:28:15;;;;;;;26.40;15.33;;;;;;;;;;4993878;28;20491;-53
2021/06/23 06:30:41;;;;;;;19.17;14.47;;;;;;;;;;4993534;28;20962;-52
2021/06/23 06:33:08;;;;;;;21.73;15.10;;;;;;;;;;4993729;28;20464;-49
2021/06/23 06:35:34;;;;;;;18.40;15.00;;;;;;;;;;4993750;28;20382;-49
2021/06/23 06:38:00;;;;;;;22.23;15.87;;;;;;;;;;4993327;28;20466;-49
2021/06/23 06:40:26;;;;;;;19.27;15.37;;;;;;;;;;4993387;28;20379;-52
2021/06/23 06:42:52;;;;;;;26.87;16.63;;;;;;;;;;4993219;28;20913;-49
2021/06/23 06:45:19;;;;;;;18.30;16.30;;;;;;;;;;4993318;28;20382;-49
2021/06/23 06:47:45;;;;;;;20.53;15.70;;;;;;;;;;4993181;28;20418;-50
2021/06/23 06:50:11;;;;;;;37.77;17.97;;;;;;;;;;4993167;28;20850;-49
2021/06/23 06:52:37;;;;;;;23.73;15.90;;;;;;;;;;4993045;28;20450;-50
2021/06/23 06:55:04;;;;;;;22.77;15.03;;;;;;;;;;4993115;28;20491;-50
2021/06/23 06:57:30;;;;;;;26.33;16.03;;;;;;;;;;4993121;28;20924;-50
2021/06/23 06:59:56;;;;;;;19.13;15.33;;;;;;;;;;4992925;28;20546;-51
2021/06/23 07:02:22;;;;;;;19.07;16.40;;;;;;;;;;4993010;28;20478;-52
2021/06/23 07:04:48;;;;;;;20.57;15.90;;;;;;;;;;4992745;28;20956;-49
2021/06/23 07:07:14;;;;;;;22.00;15.13;;;;;;;;;;4992837;28;20406;-49
2021/06/23 07:09:40;;;;;;;22.00;14.83;;;;;;;;;;4992727;28;20386;-49
2021/06/23 07:12:06;;;;;;;19.23;14.40;;;;;;;;;;4992899;28;20518;-50
2021/06/23 07:14:32;;;;;;;25.20;15.80;;;;;;;;;;4992768;28;20408;-50
2021/06/23 07:16:58;;;;;;;27.17;15.77;;;;;;;;;;4992527;28;20382;-50
2021/06/23 07:19:24;;;;;;;25.93;15.77;;;;;;;;;;4992710;28;20481;-50
2021/06/23 07:21:50;;;;;;;21.67;14.83;;;;;;;;;;4991328;28;20387;-50
2021/06/23 07:24:18;;;;;;;19.90;14.67;;;;;;;;;;4992584;28;20375;-52
2021/06/23 07:26:45;;;;;;;19.80;14.33;;;;;;;;;;4992917;28;20379;-50
2021/06/23 07:29:11;;;;;;;23.83;16.10;;;;;;;;;;4992792;28;20455;-50
2021/06/23 07:31:46;;;;;;;27.43;15.13;;;;;;;;;;4992240;28;20922;-50
2021/06/23 07:36:42;;;;;;;17.60;13.67;;;;;;;;;;4991935;28;20958;-52
2021/06/23 07:39:10;;;;;;;19.23;13.30;;;;;;;;;;4992534;28;20460;-50
2021/06/23 07:41:36;;;;;;;32.23;15.97;;;;;;;;;;4992152;28;20772;-51
2021/06/23 07:44:03;;;;;;;18.43;13.13;;;;;;;;;;4992204;28;20444;-51
2021/06/23 07:46:37;;;;;;;19.60;12.47;;;;;;;;;;4992250;28;20408;-50
2021/06/23 07:49:06;;;;;;;18.50;13.80;;;;;;;;;;4992629;28;20491;-51
2021/06/23 08:10:26;;;;;;;18.90;12.37;;;;;;;;;;4992494;28;20449;-51
2021/06/23 08:12:54;;;;;;;18.57;11.33;;;;;;;;;;4992195;28;20512;-51
2021/06/23 08:15:21;;;;;;;20.47;11.67;;;;;;;;;;4992160;28;20516;-51
2021/06/23 08:17:47;;;;;;;20.20;14.33;;;;;;;;;;4991862;28;20414;-50
2021/06/23 08:20:13;;;;;;;19.50;12.70;;;;;;;;;;4992038;28;20538;-51
2021/06/23 08:22:39;;;;;;;22.93;14.83;;;;;;;;;;4991835;28;20432;-52
2021/06/23 08:25:06;;;;;;;19.73;13.27;;;;;;;;;;4992091;28;20436;-50
2021/06/23 08:27:32;;;;;;;19.10;12.90;;;;;;;;;;4991625;28;20411;-51
2021/06/23 08:29:58;;;;;;;15.70;11.63;;;;;;;;;;4989896;28;20432;-52
2021/06/23 08:32:24;;;;;;;16.93;13.17;;;;;;;;;;4993296;28;20449;-52
2021/06/23 08:34:50;;;;;;;15.63;12.83;;;;;;;;;;5004559;28;20780;-51
2021/06/23 08:37:16;;;;;;;18.93;11.97;;;;;;;;;;4981602;28;20776;-51
2021/06/23 08:39:42;;;;;;;13.27;11.87;;;;;;;;;;4987352;28;20956;-50
2021/06/23 08:42:08;;;;;;;17.50;12.67;;;;;;;;;;4982354;28;20518;-51
2021/06/23 08:44:34;;;;;;;17.77;11.03;;;;;;;;;;4981920;28;20412;-50
2021/06/23 08:47:01;;;;;;;25.43;12.13;;;;;;;;;;4980758;28;20459;-51
2021/06/23 08:49:28;;;;;;;18.03;12.17;;;;;;;;;;4980862;28;20416;-51
2021/06/23 08:51:55;;;;;;;17.17;9.83;;;;;;;;;;4982444;28;20431;-50
2021/06/23 08:54:22;;;;;;;20.60;12.10;;;;;;;;;;4982973;28;20865;-51
2021/06/23 08:56:48;;;;;;;23.67;11.53;;;;;;;;;;5007505;28;20768;-50
2021/06/23 08:59:14;;;;;;;17.07;11.53;;;;;;;;;;5010870;28;20803;-51
2021/06/23 09:01:42;;;;;;;16.00;10.90;;;;;;;;;;4994196;28;20740;-51
2021/06/23 09:04:14;;;;;;;17.10;10.60;;;;;;;;;;4989950;28;20382;-52
2021/06/23 09:06:43;;;;;;;14.10;10.53;;;;;;;;;;4972185;28;20516;-51
2021/06/23 09:09:16;;;;;;;11.90;10.40;;;;;;;;;;4989374;28;20412;-51
2021/06/23 09:11:42;;;;;;;27.70;10.23;;;;;;;;;;4989091;28;20431;-51
2021/06/23 09:14:12;;;;;;;13.80;10.27;;;;;;;;;;4989101;28;20442;-51
2021/06/23 09:16:41;;;;;;;21.67;11.37;;;;;;;;;;4989045;28;20779;-50
2021/06/23 09:19:26;;;;;;;18.40;10.67;;;;;;;;;;4989343;28;20834;-51
2021/06/23 09:21:51;;;;;;;15.30;11.10;;;;;;;;;;4989833;28;20447;-51
2021/06/23 09:24:18;;;;;;;11.60;9.27;;;;;;;;;;4991004;28;20400;-50
2021/06/23 09:26:44;;;;;;;13.10;10.40;;;;;;;;;;4990960;28;20404;-51
2021/06/23 09:29:14;;;;;;;18.10;10.97;;;;;;;;;;4991056;28;20923;-50
2021/06/23 09:31:56;;;;;;;15.50;10.00;;;;;;;;;;4991048;28;20424;-51
2021/06/23 09:34:28;;;;;;;14.50;10.27;;;;;;;;;;4992810;28;20819;-50
2021/06/23 09:36:55;;;;;;;15.00;10.80;;;;;;;;;;4982173;28;20430;-50
2021/06/23 09:39:25;;;;;;;15.77;10.70;;;;;;;;;;4980095;28;20448;-50
2021/06/23 09:41:52;;;;;;;13.47;10.30;;;;;;;;;;4976965;28;20429;-51
2021/06/23 09:44:19;;;;;;;15.00;11.30;;;;;;;;;;4980630;28;20922;-51
2021/06/23 09:46:46;;;;;;;19.40;11.10;;;;;;;;;;4985041;28;20473;-51
2021/06/23 09:49:14;;;;;;;14.70;9.97;;;;;;;;;;4985964;28;20411;-51
2021/06/23 09:51:40;;;;;;;16.87;11.10;;;;;;;;;;4984079;28;20901;-51
2021/06/23 09:54:06;;;;;;;13.23;10.73;;;;;;;;;;4982067;28;21023;-51
2021/06/23 09:56:36;;;;;;;15.40;10.60;;;;;;;;;;4985296;28;20412;-51
2021/06/23 09:59:03;;;;;;;16.23;12.53;;;;;;;;;;4984914;28;20873;-53
2021/06/23 10:01:30;;;;;;;13.33;11.90;;;;;;;;;;4983652;28;20491;-51
2021/06/23 10:04:08;;;;;;;18.33;10.73;;;;;;;;;;4984731;28;20415;-51
2021/06/23 10:06:38;;;;;;;16.83;12.70;;;;;;;;;;4984793;28;20395;-51
2021/06/23 10:09:20;;;;;;;13.07;10.70;;;;;;;;;;4985034;28;20456;-51
2021/06/23 10:11:46;;;;;;;16.40;10.33;;;;;;;;;;4980147;28;20796;-51
2021/06/23 10:14:12;;;;;;;9.83;8.90;;;;;;;;;;4980800;28;20463;-51
2021/06/23 10:16:38;;;;;;;12.00;10.63;;;;;;;;;;4976221;28;20413;-52
2021/06/23 10:19:06;;;;;;;19.13;11.50;;;;;;;;;;4974710;28;20479;-50
2021/06/23 10:21:32;;;;;;;13.00;11.67;;;;;;;;;;4974954;28;20401;-51
2021/06/23 10:23:58;;;;;;;15.00;11.40;;;;;;;;;;4974903;28;20405;-52
2021/06/23 10:26:28;;;;;;;17.10;12.47;;;;;;;;;;4974123;28;20483;-51
2021/06/23 10:28:55;;;;;;;14.90;10.43;;;;;;;;;;4978226;28;20462;-51
2021/06/23 10:31:22;;;;;;;13.87;10.70;;;;;;;;;;4993537;28;20400;-52
2021/06/23 10:33:48;;;;;;;11.70;10.60;;;;;;;;;;4994028;28;20411;-53
2021/06/23 10:36:14;;;;;;;15.00;12.07;;;;;;;;;;4976525;28;20408;-52
2021/06/23 10:38:42;;;;;;;17.00;12.20;;;;;;;;;;4994063;28;20463;-53
2021/06/23 10:41:09;;;;;;;16.13;11.73;;;;;;;;;;4992708;28;20428;-51
2021/06/23 10:43:35;;;;;;;14.93;11.93;;;;;;;;;;4992585;28;20416;-51
2021/06/23 10:46:01;;;;;;;16.90;12.03;;;;;;;;;;4991965;28;20958;-50
2021/06/23 10:48:27;;;;;;;16.43;11.67;;;;;;;;;;4992343;28;20982;-52
2021/06/23 10:50:53;;;;;;;20.73;12.20;;;;;;;;;;4992343;28;20462;-51
2021/06/23 10:53:30;;;;;;;13.03;11.70;;;;;;;;;;4991893;28;20566;-51
2021/06/23 10:55:56;;;;;;;15.60;12.97;;;;;;;;;;4992980;28;20916;-52
2021/06/23 10:58:27;;;;;;;20.27;13.20;;;;;;;;;;4993529;28;20919;-51
2021/06/23 11:01:05;;;;;;;14.30;13.00;;;;;;;;;;4993600;28;20410;-51
2021/06/23 11:03:30;;;;;;;13.50;12.20;;;;;;;;;;4975943;28;20511;-51
2021/06/23 11:05:56;;;;;;;18.90;14.00;;;;;;;;;;4993369;28;20831;-51
2021/06/23 11:08:24;;;;;;;17.00;13.50;;;;;;;;;;4993318;28;20780;-52
2021/06/23 11:10:50;;;;;;;15.00;13.00;;;;;;;;;;4993330;28;20888;-52
2021/06/23 11:13:20;;;;;;;16.60;14.83;;;;;;;;;;4993351;28;20432;-51
2021/06/23 11:15:49;;;;;;;20.17;13.80;;;;;;;;;;4993174;28;20962;-51
2021/06/23 11:18:21;;;;;;;19.30;13.03;;;;;;;;;;4993118;28;20408;-51
2021/06/23 11:20:47;;;;;;;20.57;12.70;;;;;;;;;;4993334;28;20803;-52
2021/06/23 11:23:32;;;;;;;15.70;14.10;;;;;;;;;;4992848;28;20423;-52
2021/06/23 11:25:58;;;;;;;19.07;13.77;;;;;;;;;;4992753;28;20478;-51
2021/06/23 11:28:28;;;;;;;14.80;13.03;;;;;;;;;;4992963;28;20483;-51
2021/06/23 11:31:05;;;;;;;14.70;13.17;;;;;;;;;;4992463;28;20436;-51
2021/06/23 11:33:31;;;;;;;23.70;14.07;;;;;;;;;;4992749;28;20420;-51
2021/06/23 11:36:01;;;;;;;15.23;13.23;;;;;;;;;;4992863;28;20407;-52
2021/06/23 11:38:27;;;;;;;19.30;14.73;;;;;;;;;;4992345;28;20400;-51
2021/06/23 11:40:54;;;;;;;23.30;14.80;;;;;;;;;;4992535;28;20495;-51
2021/06/23 11:43:21;;;;;;;14.90;13.40;;;;;;;;;;4992671;28;20852;-51
2021/06/23 11:45:48;;;;;;;14.57;13.10;;;;;;;;;;4992531;28;20400;-51
2021/06/23 11:48:14;;;;;;;12.87;11.47;;;;;;;;;;4992493;28;20400;-52
2021/06/23 11:50:43;;;;;;;25.83;17.60;;;;;;;;;;4992490;28;20474;-52
2021/06/23 11:53:10;;;;;;;25.20;13.17;;;;;;;;;;4992139;28;20459;-52
2021/06/23 11:55:36;;;;;;;19.87;14.40;;;;;;;;;;4992624;28;20412;-52
2021/06/23 11:58:02;;;;;;;26.37;21.70;;;;;;;;;;4992142;28;20955;-51
2021/06/23 12:00:30;;;;;;;16.10;11.70;;;;;;;;;;4992261;28;20490;-52
2021/06/23 12:02:57;;;;;;;16.57;12.07;;;;;;;;;;4992132;28;20436;-51
2021/06/23 12:05:23;;;;;;;18.67;10.70;;;;;;;;;;4992194;28;20483;-52
2021/06/23 12:07:51;;;;;;;13.03;11.73;;;;;;;;;;4991185;28;20393;-51
2021/06/23 12:10:18;;;;;;;14.70;11.70;;;;;;;;;;4973775;28;20420;-51
2021/06/23 12:12:45;;;;;;;16.93;12.17;;;;;;;;;;4992230;28;20485;-52
2021/06/23 12:15:12;;;;;;;15.90;11.67;;;;;;;;;;4992352;28;20419;-51
2021/06/23 12:17:39;;;;;;;17.23;11.50;;;;;;;;;;4990822;28;20536;-52
2021/06/23 12:20:06;;;;;;;13.87;12.40;;;;;;;;;;4992147;28;20459;-51
2021/06/23 12:22:32;;;;;;;16.73;13.00;;;;;;;;;;4991901;28;20428;-51
2021/06/23 12:24:58;;;;;;;17.30;13.60;;;;;;;;;;4991779;28;20397;-51
2021/06/23 12:27:24;;;;;;;16.03;14.17;;;;;;;;;;4992198;28;20405;-53
2021/06/23 12:29:50;;;;;;;14.10;12.60;;;;;;;;;;4991814;28;20411;-51
2021/06/23 12:32:16;;;;;;;16.33;13.47;;;;;;;;;;4991681;28;20424;-51
2021/06/23 12:34:42;;;;;;;14.30;11.63;;;;;;;;;;4991740;28;20412;-52
2021/06/23 12:37:08;;;;;;;13.57;12.17;;;;;;;;;;4991642;28;20483;-52
2021/06/23 12:39:34;;;;;;;15.53;11.83;;;;;;;;;;4991885;28;20451;-52
2021/06/23 12:42:00;;;;;;;15.27;12.33;;;;;;;;;;4991744;28;20455;-52
2021/06/23 12:44:26;;;;;;;16.97;11.97;;;;;;;;;;4991793;28;20396;-52
2021/06/23 12:46:53;;;;;;;14.00;12.60;;;;;;;;;;4991441;28;20400;-52
2021/06/23 12:49:19;;;;;;;18.87;13.40;;;;;;;;;;4992033;28;20780;-52
2021/06/23 12:51:45;;;;;;;15.00;13.40;;;;;;;;;;4991553;28;20424;-51
2021/06/23 12:54:11;;;;;;;17.77;15.10;;;;;;;;;;4991631;28;20961;-53
2021/06/23 12:56:37;;;;;;;16.10;12.90;;;;;;;;;;4991391;28;20419;-52
2021/06/23 12:59:03;;;;;;;17.73;14.27;;;;;;;;;;4991559;28;20443;-52
2021/06/23 13:01:29;;;;;;;19.17;14.80;;;;;;;;;;4991306;28;20400;-52
2021/06/23 13:03:55;;;;;;;20.87;14.27;;;;;;;;;;4991474;28;20555;-51
2021/06/23 13:06:21;;;;;;;16.53;14.80;;;;;;;;;;4991193;28;20404;-52
2021/06/23 13:08:47;;;;;;;18.60;14.57;;;;;;;;;;4991564;28;20487;-51
2021/06/23 13:11:14;;;;;;;17.83;15.70;;;;;;;;;;4989941;28;20427;-52
2021/06/23 13:13:40;;;;;;;17.83;14.83;;;;;;;;;;4991021;28;20517;-51
2021/06/23 13:16:08;;;;;;;17.00;15.10;;;;;;;;;;4991046;28;20443;-51
2021/06/23 13:18:33;;;;;;;19.23;14.00;;;;;;;;;;4990763;28;20459;-51
2021/06/23 13:20:59;;;;;;;19.80;13.40;;;;;;;;;;4991156;28;20400;-51
2021/06/23 13:23:25;;;;;;;16.53;14.17;;;;;;;;;;4991033;28;20459;-51
2021/06/23 13:25:53;;;;;;;13.17;11.67;;;;;;;;;;4991130;28;20404;-51
2021/06/23 13:28:20;;;;;;;21.37;14.73;;;;;;;;;;4991608;28;20900;-51
2021/06/23 13:30:46;;;;;;;14.73;13.23;;;;;;;;;;4991340;28;20893;-51
2021/06/23 13:33:12;;;;;;;16.10;12.37;;;;;;;;;;4990915;28;20515;-51
2021/06/23 13:35:38;;;;;;;16.03;14.43;;;;;;;;;;4990272;28;20404;-51
2021/06/23 13:38:04;;;;;;;19.60;15.97;;;;;;;;;;4991045;28;20411;-51
2021/06/23 13:40:30;;;;;;;15.87;13.90;;;;;;;;;;4991050;28;20509;-51
2021/06/23 13:42:56;;;;;;;17.60;15.80;;;;;;;;;;4990998;28;20424;-51
2021/06/23 13:45:22;;;;;;;20.60;16.73;;;;;;;;;;4990779;28;20404;-51
2021/06/23 13:47:49;;;;;;;18.40;15.07;;;;;;;;;;4990876;28;20888;-51
2021/06/23 13:50:16;;;;;;;19.33;17.30;;;;;;;;;;4990733;28;20533;-51
2021/06/23 13:52:46;;;;;;;18.00;16.00;;;;;;;;;;4990761;28;20539;-51
2021/06/23 13:55:14;;;;;;;17.07;13.80;;;;;;;;;;4990861;28;20404;-51
2021/06/23 13:57:41;;;;;;;16.20;14.50;;;;;;;;;;4990742;28;20412;-52
2021/06/23 14:00:11;;;;;;;17.33;13.40;;;;;;;;;;4990878;28;20982;-51
2021/06/23 14:02:37;;;;;;;16.33;13.03;;;;;;;;;;4990813;28;20420;-52
2021/06/23 14:05:04;;;;;;;16.73;13.37;;;;;;;;;;4990802;28;20810;-52
2021/06/23 14:07:30;;;;;;;15.00;12.03;;;;;;;;;;4990574;28;20408;-52
2021/06/23 14:09:56;;;;;;;19.20;13.40;;;;;;;;;;4991040;28;20419;-52
2021/06/23 14:12:22;;;;;;;13.77;12.47;;;;;;;;;;4990389;28;20438;-51
2021/06/23 14:14:48;;;;;;;12.90;11.63;;;;;;;;;;4990899;28;20448;-51
2021/06/23 14:17:14;;;;;;;16.70;13.07;;;;;;;;;;4990626;28;20789;-51
2021/06/23 14:19:40;;;;;;;20.80;15.10;;;;;;;;;;4990684;28;20459;-51
2021/06/23 14:22:06;;;;;;;15.70;14.30;;;;;;;;;;4990637;28;20510;-52
2021/06/23 14:24:33;;;;;;;17.60;13.20;;;;;;;;;;4990690;28;20431;-51
2021/06/23 14:26:59;;;;;;;18.77;14.50;;;;;;;;;;4990250;28;20408;-51
2021/06/23 14:29:25;;;;;;;16.53;14.80;;;;;;;;;;4990638;28;20407;-51
2021/06/23 14:31:51;;;;;;;21.93;14.30;;;;;;;;;;4993558;28;20424;-51
2021/06/23 14:34:17;;;;;;;23.33;13.50;;;;;;;;;;4993836;28;20478;-51
2021/06/23 14:36:43;;;;;;;16.90;13.40;;;;;;;;;;4993908;28;20400;-51